sensor_id;sensor_type;location;lat;lon;timestamp;pressure;altitude;pressure_sealevel;temperature;humidity
10992;BME280;5549;47.028;15.514;2024-01-15T00:00:17;95226.06;;;-0.77;70.34
10992;BME280;5549;47.028;15.514;2024-01-15T00:02:46;95233.97;;;-0.66;69.94
10992;BME280;5549;47.028;15.514;2024-01-15T00:05:17;95224.94;;;-0.73;70.05
10992;BME280;5549;47.028;15.514;2024-01-15T00:07:47;95226.59;;;-0.72;70.12
10992;BME280;5549;47.028;15.514;2024-01-15T00:10:18;95230.75;;;-0.69;70.00
10992;BME280;5549;47.028;15.514;2024-01-15T00:12:49;95221.16;;;-0.67;69.84
10992;BME280;5549;47.028;15.514;2024-01-15T00:15:19;95222.19;;;-0.84;70.30
10992;BME280;5549;47.028;15.514;2024-01-15T00:17:47;95212.16;;;-0.74;69.97
10992;BME280;5549;47.028;15.514;2024-01-15T00:20:16;95208.03;;;-0.77;70.15
10992;BME280;5549;47.028;15.514;2024-01-15T00:22:46;95197.81;;;-0.78;70.24
10992;BME280;5549;47.028;15.514;2024-01-15T00:25:17;95203.69;;;-0.76;70.30
10992;BME280;5549;47.028;15.514;2024-01-15T00:27:45;95193.28;;;-0.75;70.27
10992;BME280;5549;47.028;15.514;2024-01-15T00:30:13;95195.50;;;-0.69;70.04
10992;BME280;5549;47.028;15.514;2024-01-15T00:32:41;95184.53;;;-0.72;70.02
10992;BME280;5549;47.028;15.514;2024-01-15T00:35:09;95181.13;;;-0.73;69.79
10992;BME280;5549;47.028;15.514;2024-01-15T00:37:40;95176.72;;;-0.71;69.93
10992;BME280;5549;47.028;15.514;2024-01-15T00:40:09;95192.28;;;-0.72;69.98
10992;BME280;5549;47.028;15.514;2024-01-15T00:42:38;95184.09;;;-0.93;70.14
10992;BME280;5549;47.028;15.514;2024-01-15T00:45:06;95166.63;;;-1.16;70.86
10992;BME280;5549;47.028;15.514;2024-01-15T00:47:34;95159.66;;;-1.14;71.02
10992;BME280;5549;47.028;15.514;2024-01-15T00:50:02;95153.28;;;-1.09;70.93
10992;BME280;5549;47.028;15.514;2024-01-15T00:52:30;95157.72;;;-1.11;70.83
10992;BME280;5549;47.028;15.514;2024-01-15T00:55:00;95151.84;;;-1.41;72.04
10992;BME280;5549;47.028;15.514;2024-01-15T00:57:30;95161.50;;;-1.45;72.35
10992;BME280;5549;47.028;15.514;2024-01-15T01:00:04;95151.19;;;-1.45;72.28
10992;BME280;5549;47.028;15.514;2024-01-15T01:02:35;95152.75;;;-1.56;72.79
10992;BME280;5549;47.028;15.514;2024-01-15T01:05:06;95150.34;;;-1.45;72.92
10992;BME280;5549;47.028;15.514;2024-01-15T01:07:34;95143.38;;;-1.29;72.22
10992;BME280;5549;47.028;15.514;2024-01-15T01:10:05;95143.84;;;-1.22;72.05
10992;BME280;5549;47.028;15.514;2024-01-15T01:12:35;95130.41;;;-1.56;72.79
10992;BME280;5549;47.028;15.514;2024-01-15T01:15:07;95115.97;;;-1.58;73.08
10992;BME280;5549;47.028;15.514;2024-01-15T01:17:35;95113.13;;;-1.40;72.68
10992;BME280;5549;47.028;15.514;2024-01-15T01:20:04;95119.47;;;-1.31;72.11
10992;BME280;5549;47.028;15.514;2024-01-15T01:22:36;95115.75;;;-1.13;72.00
10992;BME280;5549;47.028;15.514;2024-01-15T01:25:05;95114.47;;;-1.06;71.13
10992;BME280;5549;47.028;15.514;2024-01-15T01:27:35;95122.47;;;-1.10;70.83
10992;BME280;5549;47.028;15.514;2024-01-15T01:30:08;95115.38;;;-1.07;70.55
10992;BME280;5549;47.028;15.514;2024-01-15T01:32:36;95112.97;;;-0.95;70.41
10992;BME280;5549;47.028;15.514;2024-01-15T01:35:04;95113.91;;;-0.97;70.14
10992;BME280;5549;47.028;15.514;2024-01-15T01:37:34;95109.28;;;-0.91;69.75
10992;BME280;5549;47.028;15.514;2024-01-15T01:40:02;95096.41;;;-0.91;69.64
10992;BME280;5549;47.028;15.514;2024-01-15T01:42:32;95090.34;;;-1.05;69.46
10992;BME280;5549;47.028;15.514;2024-01-15T01:44:59;95077.56;;;-1.06;69.36
10992;BME280;5549;47.028;15.514;2024-01-15T01:47:30;95065.53;;;-1.06;69.30
10992;BME280;5549;47.028;15.514;2024-01-15T01:49:58;95068.91;;;-1.05;68.99
10992;BME280;5549;47.028;15.514;2024-01-15T01:52:29;95066.34;;;-1.05;68.99
10992;BME280;5549;47.028;15.514;2024-01-15T01:54:57;95064.59;;;-1.05;69.29
10992;BME280;5549;47.028;15.514;2024-01-15T01:57:28;95055.03;;;-1.03;69.05
10992;BME280;5549;47.028;15.514;2024-01-15T01:59:58;95051.19;;;-1.10;69.14
10992;BME280;5549;47.028;15.514;2024-01-15T02:02:31;95038.19;;;-1.08;69.19
10992;BME280;5549;47.028;15.514;2024-01-15T02:04:59;95027.25;;;-1.12;69.00
10992;BME280;5549;47.028;15.514;2024-01-15T02:07:29;95025.16;;;-1.19;68.79
10992;BME280;5549;47.028;15.514;2024-01-15T02:09:59;95029.06;;;-1.26;68.91
10992;BME280;5549;47.028;15.514;2024-01-15T02:12:27;95026.00;;;-1.19;68.79
10992;BME280;5549;47.028;15.514;2024-01-15T02:14:54;95032.22;;;-1.50;69.49
10992;BME280;5549;47.028;15.514;2024-01-15T02:17:24;95037.28;;;-1.48;69.37
10992;BME280;5549;47.028;15.514;2024-01-15T02:19:53;95024.41;;;-1.63;69.68
10992;BME280;5549;47.028;15.514;2024-01-15T02:22:24;95023.84;;;-1.53;69.56
10992;BME280;5549;47.028;15.514;2024-01-15T02:24:53;95025.88;;;-1.44;69.65
10992;BME280;5549;47.028;15.514;2024-01-15T02:27:22;95021.28;;;-1.53;69.72
10992;BME280;5549;47.028;15.514;2024-01-15T02:29:50;95033.50;;;-1.57;69.68
10992;BME280;5549;47.028;15.514;2024-01-15T02:32:20;95032.97;;;-1.62;69.77
10992;BME280;5549;47.028;15.514;2024-01-15T02:34:52;95043.22;;;-1.76;70.04
10992;BME280;5549;47.028;15.514;2024-01-15T02:37:19;95032.09;;;-1.77;70.23
10992;BME280;5549;47.028;15.514;2024-01-15T02:39:47;95040.13;;;-1.67;70.06
10992;BME280;5549;47.028;15.514;2024-01-15T02:42:17;95029.28;;;-1.58;69.76
10992;BME280;5549;47.028;15.514;2024-01-15T02:44:45;95016.88;;;-1.66;69.39
10992;BME280;5549;47.028;15.514;2024-01-15T02:47:12;95011.34;;;-1.74;69.71
10992;BME280;5549;47.028;15.514;2024-01-15T02:49:40;95015.28;;;-1.82;69.97
10992;BME280;5549;47.028;15.514;2024-01-15T02:52:08;95016.66;;;-2.19;70.49
10992;BME280;5549;47.028;15.514;2024-01-15T02:54:35;95016.56;;;-2.18;70.70
10992;BME280;5549;47.028;15.514;2024-01-15T02:57:03;95013.63;;;-2.12;70.75
10992;BME280;5549;47.028;15.514;2024-01-15T02:59:35;95004.34;;;-2.14;70.56
10992;BME280;5549;47.028;15.514;2024-01-15T03:02:04;94994.88;;;-2.28;70.56
10992;BME280;5549;47.028;15.514;2024-01-15T03:04:32;94995.41;;;-2.81;72.35
10992;BME280;5549;47.028;15.514;2024-01-15T03:07:00;94995.22;;;-3.08;74.19
10992;BME280;5549;47.028;15.514;2024-01-15T03:09:30;94990.31;;;-2.97;74.39
10992;BME280;5549;47.028;15.514;2024-01-15T03:11:58;94987.53;;;-2.78;74.68
10992;BME280;5549;47.028;15.514;2024-01-15T03:14:29;94978.22;;;-2.65;74.18
10992;BME280;5549;47.028;15.514;2024-01-15T03:17:06;94976.41;;;-2.49;73.58
10992;BME280;5549;47.028;15.514;2024-01-15T03:19:38;94985.97;;;-2.37;73.00
10992;BME280;5549;47.028;15.514;2024-01-15T03:22:08;94982.50;;;-2.21;72.74
10992;BME280;5549;47.028;15.514;2024-01-15T03:24:39;94966.59;;;-2.28;72.97
10992;BME280;5549;47.028;15.514;2024-01-15T03:27:13;94969.19;;;-2.28;72.83
10992;BME280;5549;47.028;15.514;2024-01-15T03:29:41;94964.22;;;-2.17;72.72
10992;BME280;5549;47.028;15.514;2024-01-15T03:32:12;94963.13;;;-2.13;72.46
10992;BME280;5549;47.028;15.514;2024-01-15T03:34:43;94964.78;;;-2.12;72.42
10992;BME280;5549;47.028;15.514;2024-01-15T03:37:17;94968.44;;;-2.02;72.26
10992;BME280;5549;47.028;15.514;2024-01-15T03:39:47;94965.13;;;-1.89;72.25
10992;BME280;5549;47.028;15.514;2024-01-15T03:42:18;94959.72;;;-1.99;72.65
10992;BME280;5549;47.028;15.514;2024-01-15T03:44:48;94955.13;;;-2.08;73.34
10992;BME280;5549;47.028;15.514;2024-01-15T03:47:21;94957.25;;;-2.15;73.63
10992;BME280;5549;47.028;15.514;2024-01-15T03:49:49;94960.63;;;-1.86;72.22
10992;BME280;5549;47.028;15.514;2024-01-15T03:52:17;94956.31;;;-1.71;72.18
10992;BME280;5549;47.028;15.514;2024-01-15T03:54:44;94957.31;;;-1.59;71.85
10992;BME280;5549;47.028;15.514;2024-01-15T03:57:12;94948.75;;;-1.60;71.31
10992;BME280;5549;47.028;15.514;2024-01-15T03:59:42;94950.88;;;-1.67;70.96
10992;BME280;5549;47.028;15.514;2024-01-15T04:02:12;94942.34;;;-1.67;69.94
10992;BME280;5549;47.028;15.514;2024-01-15T04:04:43;94950.34;;;-1.72;69.89
10992;BME280;5549;47.028;15.514;2024-01-15T04:07:11;94951.44;;;-1.90;70.46
10992;BME280;5549;47.028;15.514;2024-01-15T04:09:38;94957.78;;;-2.10;70.95
10992;BME280;5549;47.028;15.514;2024-01-15T04:12:07;94954.75;;;-2.16;71.26
10992;BME280;5549;47.028;15.514;2024-01-15T04:14:34;94950.63;;;-2.19;71.92
10992;BME280;5549;47.028;15.514;2024-01-15T04:17:23;94950.72;;;-2.06;72.27
10992;BME280;5549;47.028;15.514;2024-01-15T04:19:54;94945.84;;;-1.97;71.77
10992;BME280;5549;47.028;15.514;2024-01-15T04:22:27;94942.63;;;-1.86;71.51
10992;BME280;5549;47.028;15.514;2024-01-15T04:24:55;94945.72;;;-1.81;71.75
10992;BME280;5549;47.028;15.514;2024-01-15T04:27:24;94944.28;;;-1.71;71.20
10992;BME280;5549;47.028;15.514;2024-01-15T04:29:52;94936.19;;;-1.65;70.98
10992;BME280;5549;47.028;15.514;2024-01-15T04:32:20;94938.03;;;-1.67;70.87
10992;BME280;5549;47.028;15.514;2024-01-15T04:34:50;94937.00;;;-1.64;70.70
10992;BME280;5549;47.028;15.514;2024-01-15T04:37:19;94932.31;;;-1.57;70.56
10992;BME280;5549;47.028;15.514;2024-01-15T04:39:46;94939.81;;;-1.54;70.56
10992;BME280;5549;47.028;15.514;2024-01-15T04:42:14;94946.34;;;-1.49;69.96
10992;BME280;5549;47.028;15.514;2024-01-15T04:44:41;94949.31;;;-1.69;70.32
10992;BME280;5549;47.028;15.514;2024-01-15T04:47:09;94950.88;;;-1.67;70.23
10992;BME280;5549;47.028;15.514;2024-01-15T04:49:36;94955.09;;;-1.51;70.39
10992;BME280;5549;47.028;15.514;2024-01-15T04:52:07;94953.97;;;-1.47;70.00
10992;BME280;5549;47.028;15.514;2024-01-15T04:54:37;94963.06;;;-1.42;69.84
10992;BME280;5549;47.028;15.514;2024-01-15T04:57:05;94961.72;;;-1.62;69.77
10992;BME280;5549;47.028;15.514;2024-01-15T04:59:33;94954.53;;;-1.56;69.86
10992;BME280;5549;47.028;15.514;2024-01-15T05:02:03;94963.63;;;-1.51;69.85
10992;BME280;5549;47.028;15.514;2024-01-15T05:04:30;94966.34;;;-1.40;69.57
10992;BME280;5549;47.028;15.514;2024-01-15T05:06:59;94958.94;;;-1.44;69.86
10992;BME280;5549;47.028;15.514;2024-01-15T05:09:28;94960.13;;;-1.50;69.68
10992;BME280;5549;47.028;15.514;2024-01-15T05:11:57;94960.78;;;-1.46;69.72
10992;BME280;5549;47.028;15.514;2024-01-15T05:14:27;94960.91;;;-1.35;69.23
10992;BME280;5549;47.028;15.514;2024-01-15T05:16:55;94961.66;;;-1.33;69.24
10992;BME280;5549;47.028;15.514;2024-01-15T05:19:22;94960.53;;;-1.29;69.06
10992;BME280;5549;47.028;15.514;2024-01-15T05:21:50;94968.06;;;-1.26;68.84
10992;BME280;5549;47.028;15.514;2024-01-15T05:24:18;94967.34;;;-1.28;68.85
10992;BME280;5549;47.028;15.514;2024-01-15T05:26:47;94957.78;;;-1.26;68.69
10992;BME280;5549;47.028;15.514;2024-01-15T05:29:19;94963.31;;;-1.32;68.54
10992;BME280;5549;47.028;15.514;2024-01-15T05:31:48;94973.84;;;-1.22;68.36
10992;BME280;5549;47.028;15.514;2024-01-15T05:34:16;94972.19;;;-1.23;68.37
10992;BME280;5549;47.028;15.514;2024-01-15T05:36:43;94969.09;;;-1.28;68.80
10992;BME280;5549;47.028;15.514;2024-01-15T05:39:14;94967.91;;;-1.37;68.83
10992;BME280;5549;47.028;15.514;2024-01-15T05:41:41;94966.75;;;-1.46;69.00
10992;BME280;5549;47.028;15.514;2024-01-15T05:44:09;94963.44;;;-1.48;69.13
10992;BME280;5549;47.028;15.514;2024-01-15T05:46:40;94967.91;;;-1.37;68.94
10992;BME280;5549;47.028;15.514;2024-01-15T05:49:10;94964.91;;;-1.44;68.98
10992;BME280;5549;47.028;15.514;2024-01-15T05:51:39;94961.59;;;-1.46;68.62
10992;BME280;5549;47.028;15.514;2024-01-15T05:54:09;94964.47;;;-1.50;68.84
10992;BME280;5549;47.028;15.514;2024-01-15T05:56:39;94973.38;;;-1.56;68.91
10992;BME280;5549;47.028;15.514;2024-01-15T05:59:07;94970.34;;;-1.48;68.67
10992;BME280;5549;47.028;15.514;2024-01-15T06:01:37;94978.75;;;-1.32;68.53
10992;BME280;5549;47.028;15.514;2024-01-15T06:04:06;94979.28;;;-1.82;70.63
10992;BME280;5549;47.028;15.514;2024-01-15T06:06:36;94978.28;;;-1.94;70.91
10992;BME280;5549;47.028;15.514;2024-01-15T06:09:05;94982.78;;;-1.98;71.76
10992;BME280;5549;47.028;15.514;2024-01-15T06:11:33;94976.69;;;-1.82;71.26
10992;BME280;5549;47.028;15.514;2024-01-15T06:14:01;94972.84;;;-1.61;70.70
10992;BME280;5549;47.028;15.514;2024-01-15T06:16:32;94974.56;;;-1.47;70.46
10992;BME280;5549;47.028;15.514;2024-01-15T06:19:01;94976.84;;;-1.43;70.21
10992;BME280;5549;47.028;15.514;2024-01-15T06:21:33;94974.19;;;-1.41;70.06
10992;BME280;5549;47.028;15.514;2024-01-15T06:24:03;94979.56;;;-1.32;70.03
10992;BME280;5549;47.028;15.514;2024-01-15T06:26:30;94984.78;;;-1.19;70.00
10992;BME280;5549;47.028;15.514;2024-01-15T06:28:58;94979.63;;;-1.19;69.29
10992;BME280;5549;47.028;15.514;2024-01-15T06:31:25;94979.38;;;-1.55;70.71
10992;BME280;5549;47.028;15.514;2024-01-15T06:33:56;94980.16;;;-1.41;70.28
10992;BME280;5549;47.028;15.514;2024-01-15T06:36:23;94980.25;;;-1.15;69.71
10992;BME280;5549;47.028;15.514;2024-01-15T06:38:55;94984.34;;;-0.99;69.21
10992;BME280;5549;47.028;15.514;2024-01-15T06:41:25;94991.59;;;-1.18;68.48
10992;BME280;5549;47.028;15.514;2024-01-15T06:43:53;94994.00;;;-1.29;67.74
10992;BME280;5549;47.028;15.514;2024-01-15T06:46:22;95000.84;;;-1.42;67.86
10992;BME280;5549;47.028;15.514;2024-01-15T06:48:51;95008.00;;;-1.33;67.75
10992;BME280;5549;47.028;15.514;2024-01-15T06:51:19;95008.75;;;-1.45;67.80
10992;BME280;5549;47.028;15.514;2024-01-15T06:53:46;95020.16;;;-1.35;68.43
10992;BME280;5549;47.028;15.514;2024-01-15T06:56:18;95018.47;;;-1.22;68.08
10992;BME280;5549;47.028;15.514;2024-01-15T06:58:47;95019.41;;;-0.96;67.74
10992;BME280;5549;47.028;15.514;2024-01-15T07:01:17;95017.72;;;-0.70;67.02
10992;BME280;5549;47.028;15.514;2024-01-15T07:03:47;95027.50;;;-0.75;66.57
10992;BME280;5549;47.028;15.514;2024-01-15T07:06:15;95028.81;;;-0.43;70.36
10992;BME280;5549;47.028;15.514;2024-01-15T07:08:43;95030.00;;;-0.09;72.90
10992;BME280;5549;47.028;15.514;2024-01-15T07:11:13;95030.88;;;0.17;74.27
10992;BME280;5549;47.028;15.514;2024-01-15T07:13:43;95032.81;;;0.39;73.35
10992;BME280;5549;47.028;15.514;2024-01-15T07:16:13;95030.22;;;0.52;71.45
10992;BME280;5549;47.028;15.514;2024-01-15T07:18:41;95029.25;;;0.66;70.57
10992;BME280;5549;47.028;15.514;2024-01-15T07:21:09;95039.84;;;0.86;70.45
10992;BME280;5549;47.028;15.514;2024-01-15T07:23:37;95034.22;;;1.05;70.32
10992;BME280;5549;47.028;15.514;2024-01-15T07:26:07;95040.28;;;1.41;69.95
10992;BME280;5549;47.028;15.514;2024-01-15T07:28:35;95039.97;;;1.56;66.30
10992;BME280;5549;47.028;15.514;2024-01-15T07:31:04;95038.94;;;1.94;67.08
10992;BME280;5549;47.028;15.514;2024-01-15T07:33:32;95048.09;;;2.44;65.81
10992;BME280;5549;47.028;15.514;2024-01-15T07:36:03;95054.09;;;2.56;63.25
10992;BME280;5549;47.028;15.514;2024-01-15T07:38:31;95055.28;;;2.74;60.55
10992;BME280;5549;47.028;15.514;2024-01-15T07:40:59;95057.41;;;2.69;59.93
10992;BME280;5549;47.028;15.514;2024-01-15T07:43:26;95060.88;;;2.12;59.46
10992;BME280;5549;47.028;15.514;2024-01-15T07:45:55;95061.41;;;2.40;59.23
10992;BME280;5549;47.028;15.514;2024-01-15T07:48:23;95064.56;;;2.32;59.26
10992;BME280;5549;47.028;15.514;2024-01-15T07:50:50;95056.44;;;2.37;59.39
10992;BME280;5549;47.028;15.514;2024-01-15T07:53:20;95071.25;;;2.23;60.09
10992;BME280;5549;47.028;15.514;2024-01-15T07:55:50;95072.69;;;2.39;59.54
10992;BME280;5549;47.028;15.514;2024-01-15T07:58:20;95078.84;;;2.60;59.74
10992;BME280;5549;47.028;15.514;2024-01-15T08:00:50;95068.72;;;2.79;59.24
10992;BME280;5549;47.028;15.514;2024-01-15T08:03:21;95076.94;;;2.40;59.71
10992;BME280;5549;47.028;15.514;2024-01-15T08:05:49;95083.97;;;2.27;59.73
10992;BME280;5549;47.028;15.514;2024-01-15T08:08:22;95083.19;;;2.48;59.69
10992;BME280;5549;47.028;15.514;2024-01-15T08:10:52;95081.44;;;2.82;59.14
10992;BME280;5549;47.028;15.514;2024-01-15T08:13:19;95076.34;;;3.03;59.46
10992;BME280;5549;47.028;15.514;2024-01-15T08:15:47;95079.53;;;3.07;58.82
10992;BME280;5549;47.028;15.514;2024-01-15T08:18:16;95088.22;;;3.39;59.14
10992;BME280;5549;47.028;15.514;2024-01-15T08:20:52;95081.22;;;3.62;58.41
10992;BME280;5549;47.028;15.514;2024-01-15T08:23:20;95075.00;;;3.85;58.09
10992;BME280;5549;47.028;15.514;2024-01-15T08:25:47;95078.88;;;4.12;57.09
10992;BME280;5549;47.028;15.514;2024-01-15T08:28:16;95076.22;;;4.44;56.91
10992;BME280;5549;47.028;15.514;2024-01-15T08:30:46;95075.63;;;4.61;57.09
10992;BME280;5549;47.028;15.514;2024-01-15T08:33:17;95081.91;;;4.89;56.83
10992;BME280;5549;47.028;15.514;2024-01-15T08:35:45;95077.34;;;5.12;56.21
10992;BME280;5549;47.028;15.514;2024-01-15T08:38:16;95074.72;;;5.42;56.21
10992;BME280;5549;47.028;15.514;2024-01-15T08:40:44;95081.63;;;5.72;55.17
10992;BME280;5549;47.028;15.514;2024-01-15T08:43:11;95078.66;;;5.96;54.38
10992;BME280;5549;47.028;15.514;2024-01-15T08:45:41;95088.78;;;6.09;55.12
10992;BME280;5549;47.028;15.514;2024-01-15T08:48:08;95083.03;;;6.25;54.82
10992;BME280;5549;47.028;15.514;2024-01-15T08:50:36;95080.28;;;6.36;53.24
10992;BME280;5549;47.028;15.514;2024-01-15T08:53:06;95083.81;;;6.54;51.83
10992;BME280;5549;47.028;15.514;2024-01-15T08:55:35;95078.97;;;6.69;50.68
10992;BME280;5549;47.028;15.514;2024-01-15T08:58:05;95080.59;;;6.80;49.32
10992;BME280;5549;47.028;15.514;2024-01-15T09:00:33;95082.44;;;7.06;50.89
10992;BME280;5549;47.028;15.514;2024-01-15T09:03:01;95088.09;;;7.29;50.23
10992;BME280;5549;47.028;15.514;2024-01-15T09:05:31;95088.44;;;7.44;48.53
10992;BME280;5549;47.028;15.514;2024-01-15T09:07:59;95084.72;;;7.47;46.53
10992;BME280;5549;47.028;15.514;2024-01-15T09:10:27;95096.66;;;7.49;48.42
10992;BME280;5549;47.028;15.514;2024-01-15T09:12:58;95094.63;;;7.70;48.74
10992;BME280;5549;47.028;15.514;2024-01-15T09:15:26;95097.63;;;7.93;49.25
10992;BME280;5549;47.028;15.514;2024-01-15T09:17:56;95095.25;;;8.18;48.47
10992;BME280;5549;47.028;15.514;2024-01-15T09:20:27;95080.16;;;8.47;47.52
10992;BME280;5549;47.028;15.514;2024-01-15T09:22:55;95073.84;;;8.58;46.95
10992;BME280;5549;47.028;15.514;2024-01-15T09:25:25;95059.72;;;8.68;47.54
10992;BME280;5549;47.028;15.514;2024-01-15T09:27:56;95064.50;;;8.55;48.55
10992;BME280;5549;47.028;15.514;2024-01-15T09:30:26;95053.66;;;8.68;49.51
10992;BME280;5549;47.028;15.514;2024-01-15T09:32:56;95055.50;;;8.76;49.71
10992;BME280;5549;47.028;15.514;2024-01-15T09:35:24;95050.06;;;8.95;49.09
10992;BME280;5549;47.028;15.514;2024-01-15T09:37:52;95048.25;;;8.95;47.45
10992;BME280;5549;47.028;15.514;2024-01-15T09:40:22;95048.81;;;9.07;46.59
10992;BME280;5549;47.028;15.514;2024-01-15T09:42:52;95039.06;;;9.25;46.02
10992;BME280;5549;47.028;15.514;2024-01-15T09:45:23;95034.41;;;9.61;45.42
10992;BME280;5549;47.028;15.514;2024-01-15T09:47:51;95028.38;;;9.69;44.96
10992;BME280;5549;47.028;15.514;2024-01-15T09:50:19;95034.63;;;9.92;43.87
10992;BME280;5549;47.028;15.514;2024-01-15T09:52:52;95041.88;;;10.07;44.21
10992;BME280;5549;47.028;15.514;2024-01-15T09:55:25;95036.16;;;10.36;44.61
10992;BME280;5549;47.028;15.514;2024-01-15T09:57:54;95027.31;;;10.61;43.78
10992;BME280;5549;47.028;15.514;2024-01-15T10:00:24;95023.16;;;10.91;42.12
10992;BME280;5549;47.028;15.514;2024-01-15T10:02:57;95021.59;;;11.13;40.28
10992;BME280;5549;47.028;15.514;2024-01-15T10:05:28;95030.97;;;11.07;41.55
10992;BME280;5549;47.028;15.514;2024-01-15T10:07:57;95017.16;;;11.13;40.97
10992;BME280;5549;47.028;15.514;2024-01-15T10:10:27;95011.47;;;11.41;40.60
10992;BME280;5549;47.028;15.514;2024-01-15T10:12:55;95004.41;;;11.41;39.71
10992;BME280;5549;47.028;15.514;2024-01-15T10:15:27;95010.34;;;11.66;39.94
10992;BME280;5549;47.028;15.514;2024-01-15T10:17:57;95009.91;;;11.85;38.85
10992;BME280;5549;47.028;15.514;2024-01-15T10:20:25;95009.56;;;11.88;38.73
10992;BME280;5549;47.028;15.514;2024-01-15T10:22:56;94983.22;;;11.97;39.07
10992;BME280;5549;47.028;15.514;2024-01-15T10:25:26;94984.75;;;12.14;38.62
10992;BME280;5549;47.028;15.514;2024-01-15T10:28:01;94971.47;;;12.30;37.67
10992;BME280;5549;47.028;15.514;2024-01-15T10:30:31;94974.56;;;12.48;37.86
10992;BME280;5549;47.028;15.514;2024-01-15T10:33:00;94970.50;;;12.46;37.17
10992;BME280;5549;47.028;15.514;2024-01-15T10:35:30;94968.94;;;12.37;35.33
10992;BME280;5549;47.028;15.514;2024-01-15T10:37:58;94972.31;;;12.45;35.91
10992;BME280;5549;47.028;15.514;2024-01-15T10:40:33;94978.13;;;12.18;37.08
10992;BME280;5549;47.028;15.514;2024-01-15T10:43:03;94983.63;;;12.31;36.72
10992;BME280;5549;47.028;15.514;2024-01-15T10:45:35;94974.63;;;12.26;36.13
10992;BME280;5549;47.028;15.514;2024-01-15T10:48:06;94974.72;;;12.32;37.10
10992;BME280;5549;47.028;15.514;2024-01-15T10:50:36;94972.81;;;12.26;36.42
10992;BME280;5549;47.028;15.514;2024-01-15T10:53:05;94981.25;;;11.68;34.98
10992;BME280;5549;47.028;15.514;2024-01-15T10:55:35;94972.13;;;11.24;34.98
10992;BME280;5549;47.028;15.514;2024-01-15T10:58:05;94973.56;;;10.96;37.01
10992;BME280;5549;47.028;15.514;2024-01-15T11:00:39;94975.47;;;10.55;36.53
10992;BME280;5549;47.028;15.514;2024-01-15T11:03:07;94973.03;;;10.13;36.26
10992;BME280;5549;47.028;15.514;2024-01-15T11:05:37;94969.41;;;10.14;37.89
10992;BME280;5549;47.028;15.514;2024-01-15T11:08:06;94959.38;;;9.52;38.95
10992;BME280;5549;47.028;15.514;2024-01-15T11:10:45;94966.63;;;9.91;38.41
10992;BME280;5549;47.028;15.514;2024-01-15T11:13:20;94963.34;;;9.97;38.44
10992;BME280;5549;47.028;15.514;2024-01-15T11:16:05;94956.63;;;9.86;38.24
10992;BME280;5549;47.028;15.514;2024-01-15T11:18:37;94957.63;;;9.85;39.12
10992;BME280;5549;47.028;15.514;2024-01-15T11:21:21;94953.13;;;9.29;39.38
10992;BME280;5549;47.028;15.514;2024-01-15T11:23:55;94951.03;;;9.49;38.60
10992;BME280;5549;47.028;15.514;2024-01-15T11:26:34;94947.00;;;9.04;39.54
10992;BME280;5549;47.028;15.514;2024-01-15T11:29:03;94949.63;;;9.12;38.99
10992;BME280;5549;47.028;15.514;2024-01-15T11:32:06;94948.59;;;9.55;38.71
10992;BME280;5549;47.028;15.514;2024-01-15T11:34:58;94943.50;;;9.54;37.43
10992;BME280;5549;47.028;15.514;2024-01-15T11:37:59;94953.81;;;9.39;36.59
10992;BME280;5549;47.028;15.514;2024-01-15T11:40:39;94933.91;;;9.04;38.16
10992;BME280;5549;47.028;15.514;2024-01-15T11:43:11;94947.09;;;9.53;38.24
10992;BME280;5549;47.028;15.514;2024-01-15T11:45:41;94938.28;;;9.78;37.22
10992;BME280;5549;47.028;15.514;2024-01-15T11:48:14;94942.38;;;9.73;37.13
10992;BME280;5549;47.028;15.514;2024-01-15T11:50:44;94939.59;;;9.90;37.43
10992;BME280;5549;47.028;15.514;2024-01-15T11:53:28;94930.75;;;9.83;35.62
10992;BME280;5549;47.028;15.514;2024-01-15T11:56:04;94937.16;;;8.98;36.62
10992;BME280;5549;47.028;15.514;2024-01-15T11:58:36;94927.72;;;9.13;38.03
10992;BME280;5549;47.028;15.514;2024-01-15T12:01:06;94925.75;;;9.15;37.26
10992;BME280;5549;47.028;15.514;2024-01-15T12:03:38;94928.81;;;8.94;37.26
10992;BME280;5549;47.028;15.514;2024-01-15T12:06:08;94931.72;;;8.57;37.53
10992;BME280;5549;47.028;15.514;2024-01-15T12:08:37;94923.78;;;8.15;39.02
10992;BME280;5549;47.028;15.514;2024-01-15T12:11:07;94915.91;;;8.33;39.49
10992;BME280;5549;47.028;15.514;2024-01-15T12:13:40;94909.25;;;8.39;38.20
10992;BME280;5549;47.028;15.514;2024-01-15T12:16:08;94909.13;;;8.48;38.54
10992;BME280;5549;47.028;15.514;2024-01-15T12:18:39;94899.84;;;8.96;39.59
10992;BME280;5549;47.028;15.514;2024-01-15T12:21:09;94892.00;;;9.04;38.00
10992;BME280;5549;47.028;15.514;2024-01-15T12:23:39;94900.56;;;9.22;37.97
10992;BME280;5549;47.028;15.514;2024-01-15T12:26:07;94904.53;;;8.76;37.80
10992;BME280;5549;47.028;15.514;2024-01-15T12:28:35;94899.34;;;8.58;37.72
10992;BME280;5549;47.028;15.514;2024-01-15T12:31:07;94906.13;;;8.69;38.25
10992;BME280;5549;47.028;15.514;2024-01-15T12:33:38;94904.47;;;8.34;38.81
10992;BME280;5549;47.028;15.514;2024-01-15T12:36:06;94907.31;;;8.23;38.76
10992;BME280;5549;47.028;15.514;2024-01-15T12:38:36;94908.34;;;8.56;39.73
10992;BME280;5549;47.028;15.514;2024-01-15T12:41:04;94907.16;;;8.76;39.08
10992;BME280;5549;47.028;15.514;2024-01-15T12:43:31;94899.31;;;8.50;38.61
10992;BME280;5549;47.028;15.514;2024-01-15T12:46:02;94899.75;;;8.12;39.52
10992;BME280;5549;47.028;15.514;2024-01-15T12:48:31;94898.00;;;7.94;39.84
10992;BME280;5549;47.028;15.514;2024-01-15T12:51:00;94900.59;;;7.68;41.01
10992;BME280;5549;47.028;15.514;2024-01-15T12:53:28;94898.41;;;7.82;40.47
10992;BME280;5549;47.028;15.514;2024-01-15T12:55:55;94902.94;;;7.97;40.30
10992;BME280;5549;47.028;15.514;2024-01-15T12:58:25;94902.41;;;7.94;40.17
10992;BME280;5549;47.028;15.514;2024-01-15T13:00:53;94906.47;;;7.88;40.32
10992;BME280;5549;47.028;15.514;2024-01-15T13:03:23;94893.50;;;8.04;41.13
10992;BME280;5549;47.028;15.514;2024-01-15T13:05:50;94892.56;;;8.14;41.00
10992;BME280;5549;47.028;15.514;2024-01-15T13:08:20;94883.00;;;7.96;41.07
10992;BME280;5549;47.028;15.514;2024-01-15T13:10:50;94879.75;;;8.02;41.10
10992;BME280;5549;47.028;15.514;2024-01-15T13:13:18;94880.34;;;8.22;40.69
10992;BME280;5549;47.028;15.514;2024-01-15T13:15:47;94883.31;;;8.27;40.38
10992;BME280;5549;47.028;15.514;2024-01-15T13:18:17;94888.09;;;8.32;41.16